VLG4FD LEZL-LEBL
Flight info
| Callsign | VLG4FD |
|---|---|
| Flight time | 1h 23m |
| Altitude | 34000 |
| Route | BUDIT M445 BEGOX N860 VLC L34 CASIM N608 MATEX |
| Aircraft | A320/M-V/N |
Departure
| Time | 2026-05-06 14:48 |
|---|---|
| Airport | Seville Airport (LEZL) |
Arrival
| Time | 2026-05-06 16:11 |
|---|---|
| Airport | Josep Tarradellas Barcelona-El Prat Airport (LEBL) |
| Time | Latitude | Longitude | Altitude | Speed | Heading |
|---|---|---|---|---|---|
| 2026-05-06 14:05 | 37.42280 | -5.89885 | 94 ft | 0 kts | 315° |
| 2026-05-06 14:37 | 37.42278 | -5.89882 | 94 ft | 3 kts | 315° |
| 2026-05-06 14:37 | 37.42259 | -5.89859 | 96 ft | 4 kts | 319° |
| 2026-05-06 14:37 | 37.42238 | -5.89838 | 94 ft | 4 kts | 329° |
| 2026-05-06 14:37 | 37.42214 | -5.89827 | 93 ft | 4 kts | 16° |
| 2026-05-06 14:38 | 37.42206 | -5.89831 | 94 ft | 0 kts | 45° |
| 2026-05-06 14:42 | 37.42210 | -5.89826 | 94 ft | 4 kts | 45° |
| 2026-05-06 14:42 | 37.42239 | -5.89789 | 94 ft | 8 kts | 45° |
| 2026-05-06 14:42 | 37.42252 | -5.89707 | 95 ft | 13 kts | 119° |
| 2026-05-06 14:42 | 37.42188 | -5.89621 | 95 ft | 13 kts | 134° |
| 2026-05-06 14:43 | 37.42121 | -5.89535 | 97 ft | 14 kts | 134° |
| 2026-05-06 14:43 | 37.42054 | -5.89448 | 100 ft | 11 kts | 134° |
| 2026-05-06 14:43 | 37.41998 | -5.89377 | 101 ft | 12 kts | 134° |
| 2026-05-06 14:43 | 37.41983 | -5.89267 | 100 ft | 14 kts | 90° |
| 2026-05-06 14:44 | 37.41983 | -5.89129 | 101 ft | 17 kts | 90° |
| 2026-05-06 14:44 | 37.41984 | -5.88965 | 102 ft | 20 kts | 90° |
| 2026-05-06 14:44 | 37.41984 | -5.88783 | 103 ft | 18 kts | 90° |
| 2026-05-06 14:45 | 37.41986 | -5.88460 | 105 ft | 14 kts | 89° |
| 2026-05-06 14:45 | 37.41986 | -5.88325 | 105 ft | 17 kts | 90° |
| 2026-05-06 14:45 | 37.41986 | -5.88162 | 106 ft | 20 kts | 90° |
| 2026-05-06 14:45 | 37.41987 | -5.88014 | 107 ft | 10 kts | 89° |
| 2026-05-06 14:46 | 37.41987 | -5.87918 | 107 ft | 13 kts | 90° |
| 2026-05-06 14:46 | 37.41988 | -5.87771 | 108 ft | 19 kts | 90° |
| 2026-05-06 14:46 | 37.41988 | -5.87625 | 109 ft | 16 kts | 90° |
| 2026-05-06 14:46 | 37.41975 | -5.87510 | 110 ft | 14 kts | 112° |
| 2026-05-06 14:47 | 37.41915 | -5.87432 | 114 ft | 10 kts | 159° |
| 2026-05-06 14:47 | 37.41847 | -5.87446 | 114 ft | 11 kts | 213° |
| 2026-05-06 14:47 | 37.41801 | -5.87550 | 116 ft | 11 kts | 259° |
| 2026-05-06 14:47 | 37.41800 | -5.87689 | 113 ft | 27 kts | 270° |
| 2026-05-06 14:48 | 37.41798 | -5.88280 | 106 ft | 105 kts | 270° |
| 2026-05-06 14:48 | 37.41795 | -5.89453 | 143 ft | 157 kts | 271° |
| 2026-05-06 14:48 | 37.41795 | -5.90812 | 882 ft | 155 kts | 269° |
| 2026-05-06 14:48 | 37.41822 | -5.92163 | 1629 ft | 163 kts | 279° |
| 2026-05-06 14:49 | 37.42474 | -5.93426 | 2058 ft | 188 kts | 317° |
| 2026-05-06 14:49 | 37.43519 | -5.94573 | 2515 ft | 210 kts | 317° |
| 2026-05-06 14:49 | 37.44693 | -5.95871 | 2962 ft | 239 kts | 317° |
| 2026-05-06 14:49 | 37.45997 | -5.97336 | 3697 ft | 260 kts | 316° |
| 2026-05-06 14:50 | 37.47337 | -5.98871 | 4871 ft | 265 kts | 316° |
| 2026-05-06 14:50 | 37.48706 | -6.00460 | 6015 ft | 269 kts | 316° |
| 2026-05-06 14:50 | 37.50086 | -6.02071 | 7102 ft | 273 kts | 316° |
| 2026-05-06 14:50 | 37.51489 | -6.03711 | 8129 ft | 277 kts | 316° |
| 2026-05-06 14:51 | 37.53019 | -6.05240 | 9100 ft | 285 kts | 329° |
| 2026-05-06 14:51 | 37.54892 | -6.06116 | 10054 ft | 293 kts | 348° |
| 2026-05-06 14:51 | 37.57011 | -6.06180 | 10486 ft | 318 kts | 9° |
| 2026-05-06 14:51 | 37.59118 | -6.05189 | 10931 ft | 338 kts | 32° |
| 2026-05-06 14:52 | 37.60854 | -6.03151 | 11711 ft | 345 kts | 54° |
| 2026-05-06 14:52 | 37.61892 | -6.00419 | 12556 ft | 349 kts | 75° |
| 2026-05-06 14:52 | 37.62513 | -5.97444 | 13442 ft | 353 kts | 76° |
| 2026-05-06 14:52 | 37.63122 | -5.94413 | 14217 ft | 358 kts | 77° |
| 2026-05-06 14:53 | 37.63737 | -5.91344 | 14913 ft | 363 kts | 76° |
| 2026-05-06 14:53 | 37.64353 | -5.88269 | 15599 ft | 368 kts | 76° |
| 2026-05-06 14:53 | 37.64984 | -5.85113 | 16305 ft | 374 kts | 76° |
| 2026-05-06 14:53 | 37.65623 | -5.81914 | 17027 ft | 379 kts | 76° |
| 2026-05-06 14:54 | 37.66273 | -5.78661 | 17748 ft | 384 kts | 76° |
| 2026-05-06 14:54 | 37.66935 | -5.75368 | 18412 ft | 389 kts | 76° |
| 2026-05-06 14:54 | 37.67605 | -5.72037 | 19035 ft | 394 kts | 76° |
| 2026-05-06 14:54 | 37.68282 | -5.68664 | 19666 ft | 399 kts | 76° |
| 2026-05-06 14:55 | 37.68969 | -5.65242 | 20303 ft | 403 kts | 76° |
| 2026-05-06 14:55 | 37.69656 | -5.61794 | 20909 ft | 408 kts | 76° |
| 2026-05-06 14:55 | 37.70349 | -5.58300 | 21495 ft | 412 kts | 76° |
| 2026-05-06 14:55 | 37.71052 | -5.54765 | 22069 ft | 417 kts | 76° |
| 2026-05-06 14:56 | 37.71762 | -5.51201 | 22639 ft | 422 kts | 76° |
| 2026-05-06 14:56 | 37.72475 | -5.47625 | 23222 ft | 426 kts | 76° |
| 2026-05-06 14:56 | 37.73203 | -5.43968 | 23752 ft | 431 kts | 77° |
| 2026-05-06 14:56 | 37.73936 | -5.40276 | 24226 ft | 435 kts | 77° |
| 2026-05-06 14:57 | 37.74672 | -5.36537 | 24697 ft | 439 kts | 77° |
| 2026-05-06 14:57 | 37.75411 | -5.32760 | 25161 ft | 444 kts | 77° |
| 2026-05-06 14:57 | 37.76153 | -5.28952 | 25622 ft | 448 kts | 77° |
| 2026-05-06 14:57 | 37.76892 | -5.25158 | 26062 ft | 452 kts | 78° |
| 2026-05-06 14:58 | 37.77649 | -5.21285 | 26513 ft | 456 kts | 78° |
| 2026-05-06 14:58 | 37.78416 | -5.17365 | 26959 ft | 460 kts | 78° |
| 2026-05-06 14:58 | 37.79190 | -5.13404 | 27387 ft | 465 kts | 78° |
| 2026-05-06 14:58 | 37.79969 | -5.09402 | 27809 ft | 469 kts | 78° |
| 2026-05-06 14:59 | 37.80743 | -5.05423 | 28228 ft | 473 kts | 78° |
| 2026-05-06 14:59 | 37.81528 | -5.01361 | 28666 ft | 477 kts | 78° |
| 2026-05-06 14:59 | 37.82317 | -4.97265 | 29094 ft | 481 kts | 78° |
| 2026-05-06 14:59 | 37.83114 | -4.93124 | 29526 ft | 486 kts | 79° |
| 2026-05-06 15:00 | 37.83922 | -4.88942 | 29948 ft | 490 kts | 79° |
| 2026-05-06 15:00 | 37.84647 | -4.84767 | 30322 ft | 492 kts | 84° |
| 2026-05-06 15:00 | 37.84994 | -4.80460 | 30670 ft | 492 kts | 89° |
| 2026-05-06 15:00 | 37.85252 | -4.76120 | 31040 ft | 496 kts | 89° |
| 2026-05-06 15:01 | 37.85516 | -4.71735 | 31409 ft | 499 kts | 89° |
| 2026-05-06 15:01 | 37.85788 | -4.67341 | 31776 ft | 503 kts | 89° |
| 2026-05-06 15:01 | 37.86066 | -4.62909 | 32207 ft | 505 kts | 89° |
| 2026-05-06 15:01 | 37.86344 | -4.58478 | 32770 ft | 504 kts | 89° |
| 2026-05-06 15:02 | 37.86617 | -4.54109 | 33321 ft | 503 kts | 89° |
| 2026-05-06 15:02 | 37.86889 | -4.49686 | 33771 ft | 504 kts | 89° |
| 2026-05-06 15:02 | 37.87156 | -4.45260 | 33882 ft | 501 kts | 90° |
| 2026-05-06 15:03 | 37.87672 | -4.36608 | 33897 ft | 487 kts | 90° |
| 2026-05-06 15:03 | 37.88162 | -4.28068 | 33891 ft | 486 kts | 90° |
| 2026-05-06 15:04 | 37.88645 | -4.19520 | 33893 ft | 487 kts | 90° |
| 2026-05-06 15:04 | 37.89128 | -4.11007 | 33889 ft | 487 kts | 90° |
| 2026-05-06 15:05 | 37.89616 | -4.02455 | 33889 ft | 487 kts | 90° |
| 2026-05-06 15:05 | 37.90099 | -3.93873 | 33887 ft | 488 kts | 90° |
| 2026-05-06 15:06 | 37.90562 | -3.85345 | 33888 ft | 488 kts | 90° |
| 2026-05-06 15:06 | 37.91018 | -3.76765 | 33890 ft | 488 kts | 90° |
| 2026-05-06 15:07 | 37.91474 | -3.68173 | 33885 ft | 488 kts | 90° |
| 2026-05-06 15:07 | 37.91927 | -3.59633 | 33880 ft | 489 kts | 90° |
| 2026-05-06 15:08 | 37.92382 | -3.51030 | 33880 ft | 489 kts | 90° |
| 2026-05-06 15:08 | 37.92837 | -3.42430 | 33880 ft | 489 kts | 90° |
| 2026-05-06 15:09 | 37.93287 | -3.33814 | 33879 ft | 490 kts | 90° |
| 2026-05-06 15:09 | 37.93722 | -3.25236 | 33881 ft | 490 kts | 90° |
| 2026-05-06 15:10 | 37.94153 | -3.16614 | 33888 ft | 490 kts | 91° |
| 2026-05-06 15:10 | 37.94574 | -3.07978 | 33887 ft | 491 kts | 91° |
| 2026-05-06 15:11 | 37.94988 | -2.99393 | 33891 ft | 491 kts | 91° |
| 2026-05-06 15:11 | 37.95407 | -2.90759 | 33890 ft | 491 kts | 91° |
| 2026-05-06 15:12 | 37.95821 | -2.82129 | 33893 ft | 490 kts | 91° |
| 2026-05-06 15:12 | 37.96221 | -2.73484 | 33903 ft | 491 kts | 91° |
| 2026-05-06 15:13 | 37.96611 | -2.64847 | 33903 ft | 491 kts | 91° |
| 2026-05-06 15:13 | 37.97284 | -2.56217 | 33913 ft | 495 kts | 79° |
| 2026-05-06 15:14 | 37.99796 | -2.48128 | 33920 ft | 498 kts | 59° |
| 2026-05-06 15:14 | 38.01777 | -2.44522 | 33912 ft | 497 kts | 48° |
| 2026-05-06 15:14 | 38.03307 | -2.42366 | 33901 ft | 495 kts | 44° |
| 2026-05-06 15:15 | 38.08068 | -2.36016 | 33902 ft | 496 kts | 44° |
| 2026-05-06 15:15 | 38.12806 | -2.29649 | 33907 ft | 496 kts | 44° |
| 2026-05-06 15:16 | 38.17553 | -2.23266 | 33922 ft | 496 kts | 44° |
| 2026-05-06 15:16 | 38.22131 | -2.16754 | 33926 ft | 497 kts | 50° |
| 2026-05-06 15:17 | 38.26411 | -2.09822 | 33933 ft | 497 kts | 50° |
| 2026-05-06 15:17 | 38.30699 | -2.02900 | 33938 ft | 497 kts | 50° |
| 2026-05-06 15:18 | 38.34954 | -1.96018 | 33927 ft | 497 kts | 50° |
| 2026-05-06 15:18 | 38.39227 | -1.89067 | 33929 ft | 497 kts | 50° |
| 2026-05-06 15:19 | 38.43497 | -1.82120 | 33932 ft | 498 kts | 50° |
| 2026-05-06 15:19 | 38.47772 | -1.75156 | 33936 ft | 498 kts | 50° |
| 2026-05-06 15:20 | 38.52018 | -1.68226 | 33934 ft | 498 kts | 50° |
| 2026-05-06 15:20 | 38.56283 | -1.61242 | 33935 ft | 498 kts | 50° |
| 2026-05-06 15:21 | 38.60542 | -1.54256 | 33941 ft | 498 kts | 50° |
| 2026-05-06 15:21 | 38.64801 | -1.47270 | 33946 ft | 498 kts | 50° |
| 2026-05-06 15:22 | 38.69020 | -1.40317 | 33947 ft | 498 kts | 50° |
| 2026-05-06 15:22 | 38.73265 | -1.33289 | 33949 ft | 498 kts | 50° |
| 2026-05-06 15:23 | 38.77510 | -1.26254 | 33950 ft | 498 kts | 50° |
| 2026-05-06 15:23 | 38.81730 | -1.19263 | 33947 ft | 498 kts | 50° |
| 2026-05-06 15:24 | 38.85972 | -1.12216 | 33952 ft | 498 kts | 50° |
| 2026-05-06 15:24 | 38.90202 | -1.05181 | 33951 ft | 497 kts | 50° |
| 2026-05-06 15:25 | 38.94399 | -0.98183 | 33951 ft | 497 kts | 50° |
| 2026-05-06 15:25 | 38.98623 | -0.91122 | 33952 ft | 497 kts | 50° |
| 2026-05-06 15:26 | 39.02834 | -0.84067 | 33954 ft | 496 kts | 50° |
| 2026-05-06 15:26 | 39.07439 | -0.77596 | 33954 ft | 490 kts | 36° |
| 2026-05-06 15:27 | 39.13047 | -0.72969 | 33954 ft | 482 kts | 22° |
| 2026-05-06 15:27 | 39.18969 | -0.68882 | 33941 ft | 481 kts | 22° |
| 2026-05-06 15:28 | 39.24853 | -0.64811 | 33947 ft | 482 kts | 22° |
| 2026-05-06 15:28 | 39.30778 | -0.60698 | 33959 ft | 482 kts | 22° |
| 2026-05-06 15:29 | 39.36679 | -0.56597 | 33964 ft | 482 kts | 22° |
| 2026-05-06 15:29 | 39.42552 | -0.52502 | 33968 ft | 482 kts | 22° |
| 2026-05-06 15:30 | 39.48447 | -0.48383 | 33965 ft | 482 kts | 23° |
| 2026-05-06 15:30 | 39.54212 | -0.43910 | 33967 ft | 485 kts | 27° |
| 2026-05-06 15:31 | 39.59840 | -0.39075 | 33967 ft | 485 kts | 28° |
| 2026-05-06 15:31 | 39.65463 | -0.34227 | 33969 ft | 485 kts | 28° |
| 2026-05-06 15:32 | 39.73963 | -0.27125 | 33966 ft | 483 kts | 27° |
| 2026-05-06 15:32 | 39.79635 | -0.22415 | 33965 ft | 483 kts | 27° |
| 2026-05-06 15:33 | 39.85285 | -0.17679 | 33965 ft | 483 kts | 27° |
| 2026-05-06 15:33 | 39.90891 | -0.12964 | 33967 ft | 482 kts | 27° |
| 2026-05-06 15:34 | 39.96532 | -0.08211 | 33955 ft | 483 kts | 27° |
| 2026-05-06 15:34 | 39.99394 | -0.05796 | 33728 ft | 490 kts | 27° |
| 2026-05-06 15:34 | 40.02258 | -0.03376 | 33455 ft | 491 kts | 28° |
| 2026-05-06 15:35 | 40.05125 | -0.00948 | 33186 ft | 490 kts | 28° |
| 2026-05-06 15:35 | 40.07975 | 0.01472 | 32928 ft | 488 kts | 28° |
| 2026-05-06 15:35 | 40.10816 | 0.03885 | 32663 ft | 486 kts | 28° |
| 2026-05-06 15:35 | 40.13644 | 0.06288 | 32395 ft | 483 kts | 28° |
| 2026-05-06 15:36 | 40.16437 | 0.08661 | 32139 ft | 481 kts | 28° |
| 2026-05-06 15:36 | 40.19245 | 0.11049 | 31904 ft | 480 kts | 28° |
| 2026-05-06 15:36 | 40.22095 | 0.13280 | 31638 ft | 473 kts | 21° |
| 2026-05-06 15:36 | 40.25090 | 0.14989 | 31385 ft | 465 kts | 13° |
| 2026-05-06 15:37 | 40.28158 | 0.16210 | 31137 ft | 459 kts | 9° |
| 2026-05-06 15:37 | 40.31230 | 0.17349 | 30891 ft | 457 kts | 9° |
| 2026-05-06 15:37 | 40.34247 | 0.18475 | 30644 ft | 455 kts | 9° |
| 2026-05-06 15:37 | 40.37292 | 0.19618 | 30399 ft | 453 kts | 9° |
| 2026-05-06 15:38 | 40.40327 | 0.20762 | 30154 ft | 451 kts | 10° |
| 2026-05-06 15:38 | 40.43344 | 0.21899 | 29891 ft | 449 kts | 9° |
| 2026-05-06 15:38 | 40.46332 | 0.23025 | 29486 ft | 443 kts | 10° |
| 2026-05-06 15:38 | 40.49246 | 0.24125 | 28974 ft | 438 kts | 10° |
| 2026-05-06 15:39 | 40.52154 | 0.25328 | 28464 ft | 438 kts | 16° |
| 2026-05-06 15:39 | 40.54894 | 0.27102 | 27970 ft | 440 kts | 27° |
| 2026-05-06 15:39 | 40.57381 | 0.29490 | 27589 ft | 442 kts | 38° |
| 2026-05-06 15:39 | 40.59541 | 0.32387 | 27233 ft | 445 kts | 46° |
| 2026-05-06 15:40 | 40.61550 | 0.35413 | 26870 ft | 443 kts | 46° |
| 2026-05-06 15:40 | 40.63572 | 0.38460 | 26512 ft | 440 kts | 46° |
| 2026-05-06 15:40 | 40.65581 | 0.41491 | 26147 ft | 438 kts | 46° |
| 2026-05-06 15:40 | 40.67574 | 0.44504 | 25792 ft | 435 kts | 46° |
| 2026-05-06 15:41 | 40.69552 | 0.47507 | 25436 ft | 432 kts | 46° |
| 2026-05-06 15:41 | 40.71520 | 0.50494 | 25070 ft | 430 kts | 46° |
| 2026-05-06 15:41 | 40.73473 | 0.53456 | 24724 ft | 427 kts | 46° |
| 2026-05-06 15:41 | 40.75422 | 0.56413 | 24377 ft | 425 kts | 46° |
| 2026-05-06 15:42 | 40.77353 | 0.59351 | 24024 ft | 422 kts | 46° |
| 2026-05-06 15:42 | 40.79279 | 0.62286 | 23678 ft | 420 kts | 46° |
| 2026-05-06 15:42 | 40.81185 | 0.65190 | 23302 ft | 418 kts | 46° |
| 2026-05-06 15:42 | 40.83084 | 0.68085 | 22953 ft | 415 kts | 46° |
| 2026-05-06 15:43 | 40.84967 | 0.70958 | 22615 ft | 412 kts | 46° |
| 2026-05-06 15:43 | 40.86812 | 0.73775 | 22281 ft | 409 kts | 46° |
| 2026-05-06 15:43 | 40.88672 | 0.76616 | 21943 ft | 406 kts | 46° |
| 2026-05-06 15:43 | 40.90516 | 0.79438 | 21608 ft | 403 kts | 46° |
| 2026-05-06 15:44 | 40.92345 | 0.82237 | 21281 ft | 400 kts | 46° |
| 2026-05-06 15:44 | 40.94156 | 0.85012 | 20954 ft | 397 kts | 46° |
| 2026-05-06 15:44 | 40.95953 | 0.87770 | 20634 ft | 394 kts | 46° |
| 2026-05-06 15:44 | 40.97733 | 0.90502 | 20309 ft | 390 kts | 46° |
| 2026-05-06 15:45 | 40.99481 | 0.93190 | 19997 ft | 387 kts | 47° |
| 2026-05-06 15:45 | 41.01232 | 0.95883 | 19687 ft | 384 kts | 47° |
| 2026-05-06 15:45 | 41.02969 | 0.98557 | 19372 ft | 381 kts | 47° |
| 2026-05-06 15:45 | 41.04697 | 1.01220 | 19059 ft | 378 kts | 47° |
| 2026-05-06 15:46 | 41.06380 | 1.03817 | 18754 ft | 374 kts | 47° |
| 2026-05-06 15:46 | 41.08071 | 1.06431 | 18447 ft | 371 kts | 47° |
| 2026-05-06 15:46 | 41.09752 | 1.09029 | 18134 ft | 368 kts | 47° |
| 2026-05-06 15:46 | 41.11412 | 1.11600 | 17815 ft | 366 kts | 47° |
| 2026-05-06 15:47 | 41.13062 | 1.14154 | 17516 ft | 363 kts | 47° |
| 2026-05-06 15:47 | 41.14665 | 1.16739 | 17221 ft | 362 kts | 52° |
| 2026-05-06 15:47 | 41.16091 | 1.19480 | 16927 ft | 360 kts | 53° |
| 2026-05-06 15:47 | 41.17486 | 1.22174 | 16635 ft | 357 kts | 54° |
| 2026-05-06 15:48 | 41.18888 | 1.24884 | 16342 ft | 355 kts | 54° |
| 2026-05-06 15:48 | 41.20282 | 1.27582 | 16041 ft | 353 kts | 54° |
| 2026-05-06 15:48 | 41.21666 | 1.30266 | 15766 ft | 351 kts | 54° |
| 2026-05-06 15:48 | 41.23039 | 1.32934 | 15481 ft | 348 kts | 54° |
| 2026-05-06 15:49 | 41.24402 | 1.35583 | 15195 ft | 346 kts | 54° |
| 2026-05-06 15:49 | 41.25759 | 1.38218 | 14911 ft | 344 kts | 54° |
| 2026-05-06 15:49 | 41.27110 | 1.40840 | 14628 ft | 342 kts | 54° |
| 2026-05-06 15:49 | 41.28454 | 1.43446 | 14351 ft | 340 kts | 54° |
| 2026-05-06 15:50 | 41.29789 | 1.46037 | 14074 ft | 338 kts | 54° |
| 2026-05-06 15:50 | 41.31098 | 1.48579 | 13797 ft | 337 kts | 54° |
| 2026-05-06 15:50 | 41.32416 | 1.51146 | 13500 ft | 335 kts | 54° |
| 2026-05-06 15:50 | 41.33725 | 1.53707 | 13223 ft | 334 kts | 55° |
| 2026-05-06 15:51 | 41.34810 | 1.56432 | 12954 ft | 334 kts | 66° |
| 2026-05-06 15:51 | 41.35710 | 1.59279 | 12680 ft | 333 kts | 66° |
| 2026-05-06 15:51 | 41.36608 | 1.62114 | 12406 ft | 330 kts | 66° |
| 2026-05-06 15:51 | 41.37502 | 1.64930 | 12138 ft | 329 kts | 66° |
| 2026-05-06 15:52 | 41.38383 | 1.67704 | 11874 ft | 328 kts | 66° |
| 2026-05-06 15:52 | 41.39267 | 1.70502 | 11613 ft | 327 kts | 65° |
| 2026-05-06 15:52 | 41.40154 | 1.73298 | 11344 ft | 325 kts | 65° |
| 2026-05-06 15:52 | 41.41032 | 1.76072 | 11077 ft | 324 kts | 65° |
| 2026-05-06 15:53 | 41.41892 | 1.78797 | 10824 ft | 323 kts | 65° |
| 2026-05-06 15:53 | 41.42757 | 1.81545 | 10549 ft | 321 kts | 66° |
| 2026-05-06 15:53 | 41.43622 | 1.84302 | 10282 ft | 320 kts | 66° |
| 2026-05-06 15:53 | 41.44479 | 1.87030 | 10051 ft | 316 kts | 65° |
| 2026-05-06 15:54 | 41.45321 | 1.89703 | 9914 ft | 307 kts | 65° |
| 2026-05-06 15:54 | 41.46133 | 1.92276 | 9770 ft | 300 kts | 65° |
| 2026-05-06 15:54 | 41.46942 | 1.94845 | 9645 ft | 300 kts | 65° |
| 2026-05-06 15:54 | 41.47751 | 1.97415 | 9496 ft | 299 kts | 65° |
| 2026-05-06 15:55 | 41.48553 | 1.99962 | 9338 ft | 298 kts | 65° |
| 2026-05-06 15:55 | 41.49352 | 2.02509 | 9179 ft | 297 kts | 65° |
| 2026-05-06 15:55 | 41.50147 | 2.05053 | 9032 ft | 297 kts | 65° |
| 2026-05-06 15:55 | 41.50926 | 2.07553 | 8879 ft | 296 kts | 65° |
| 2026-05-06 15:56 | 41.51679 | 2.10114 | 8729 ft | 297 kts | 72° |
| 2026-05-06 15:56 | 41.52049 | 2.12815 | 8573 ft | 298 kts | 85° |
| 2026-05-06 15:56 | 41.52126 | 2.15578 | 8413 ft | 297 kts | 87° |
| 2026-05-06 15:56 | 41.52199 | 2.18333 | 8252 ft | 296 kts | 87° |
| 2026-05-06 15:57 | 41.52270 | 2.21044 | 8116 ft | 287 kts | 87° |
| 2026-05-06 15:57 | 41.52066 | 2.23614 | 7984 ft | 279 kts | 108° |
| 2026-05-06 15:57 | 41.51170 | 2.25848 | 7853 ft | 270 kts | 131° |
| 2026-05-06 15:57 | 41.49752 | 2.27424 | 7679 ft | 261 kts | 154° |
| 2026-05-06 15:58 | 41.48120 | 2.28430 | 7451 ft | 256 kts | 158° |
| 2026-05-06 15:58 | 41.46673 | 2.29755 | 7265 ft | 258 kts | 131° |
| 2026-05-06 15:58 | 41.45919 | 2.31895 | 7072 ft | 257 kts | 97° |
| 2026-05-06 15:58 | 41.46101 | 2.34213 | 6889 ft | 252 kts | 64° |
| 2026-05-06 15:59 | 41.46919 | 2.36275 | 6742 ft | 252 kts | 59° |
| 2026-05-06 15:59 | 41.47680 | 2.38389 | 6582 ft | 253 kts | 63° |
| 2026-05-06 15:59 | 41.48386 | 2.40537 | 6419 ft | 252 kts | 64° |
| 2026-05-06 15:59 | 41.49079 | 2.42682 | 6251 ft | 251 kts | 64° |
| 2026-05-06 16:00 | 41.49777 | 2.44820 | 6086 ft | 251 kts | 64° |
| 2026-05-06 16:00 | 41.50455 | 2.46933 | 5940 ft | 251 kts | 69° |
| 2026-05-06 16:00 | 41.50564 | 2.49220 | 5798 ft | 247 kts | 104° |
| 2026-05-06 16:00 | 41.49767 | 2.51154 | 5672 ft | 235 kts | 138° |
| 2026-05-06 16:01 | 41.48420 | 2.52225 | 5538 ft | 220 kts | 168° |
| 2026-05-06 16:01 | 41.46954 | 2.52320 | 5385 ft | 207 kts | 195° |
| 2026-05-06 16:01 | 41.45693 | 2.51552 | 5214 ft | 195 kts | 224° |
| 2026-05-06 16:01 | 41.44899 | 2.50192 | 5170 ft | 181 kts | 247° |
| 2026-05-06 16:02 | 41.44539 | 2.49200 | 5160 ft | 176 kts | 247° |
| 2026-05-06 16:02 | 41.43873 | 2.47403 | 5089 ft | 150 kts | 247° |
| 2026-05-06 16:02 | 41.43437 | 2.46234 | 5076 ft | 132 kts | 248° |
| 2026-05-06 16:02 | 41.43035 | 2.45147 | 5055 ft | 130 kts | 249° |
| 2026-05-06 16:03 | 41.42771 | 2.44433 | 5040 ft | 129 kts | 249° |
| 2026-05-06 16:03 | 41.42376 | 2.43362 | 5014 ft | 129 kts | 248° |
| 2026-05-06 16:03 | 41.41980 | 2.42287 | 4983 ft | 129 kts | 248° |
| 2026-05-06 16:03 | 41.41583 | 2.41210 | 4941 ft | 129 kts | 249° |
| 2026-05-06 16:04 | 41.41186 | 2.40136 | 4865 ft | 130 kts | 248° |
| 2026-05-06 16:04 | 41.40789 | 2.39060 | 4728 ft | 129 kts | 248° |
| 2026-05-06 16:04 | 41.40394 | 2.37992 | 4569 ft | 128 kts | 248° |
| 2026-05-06 16:04 | 41.40000 | 2.36925 | 4392 ft | 128 kts | 248° |
| 2026-05-06 16:05 | 41.39595 | 2.35866 | 4211 ft | 129 kts | 242° |
| 2026-05-06 16:05 | 41.39095 | 2.34897 | 4017 ft | 127 kts | 242° |
| 2026-05-06 16:05 | 41.38661 | 2.33867 | 3837 ft | 127 kts | 245° |
| 2026-05-06 16:05 | 41.38262 | 2.32819 | 3663 ft | 128 kts | 246° |
| 2026-05-06 16:06 | 41.37876 | 2.31751 | 3496 ft | 127 kts | 246° |
| 2026-05-06 16:06 | 41.37500 | 2.30679 | 3326 ft | 128 kts | 246° |
| 2026-05-06 16:06 | 41.37127 | 2.29599 | 3158 ft | 128 kts | 245° |
| 2026-05-06 16:06 | 41.36762 | 2.28535 | 2985 ft | 127 kts | 245° |
| 2026-05-06 16:07 | 41.36393 | 2.27453 | 2814 ft | 128 kts | 245° |
| 2026-05-06 16:07 | 41.36027 | 2.26378 | 2635 ft | 127 kts | 243° |
| 2026-05-06 16:07 | 41.35660 | 2.25301 | 2477 ft | 126 kts | 244° |
| 2026-05-06 16:07 | 41.35300 | 2.24241 | 2311 ft | 127 kts | 241° |
| 2026-05-06 16:08 | 41.34936 | 2.23173 | 2131 ft | 126 kts | 242° |
| 2026-05-06 16:08 | 41.34573 | 2.22108 | 1976 ft | 127 kts | 243° |
| 2026-05-06 16:08 | 41.34211 | 2.21043 | 1796 ft | 126 kts | 241° |
| 2026-05-06 16:08 | 41.33851 | 2.19986 | 1629 ft | 126 kts | 242° |
| 2026-05-06 16:09 | 41.33497 | 2.18947 | 1465 ft | 125 kts | 242° |
| 2026-05-06 16:09 | 41.33135 | 2.17884 | 1302 ft | 125 kts | 243° |
| 2026-05-06 16:09 | 41.32778 | 2.16837 | 1128 ft | 125 kts | 241° |
| 2026-05-06 16:09 | 41.32416 | 2.15776 | 947 ft | 125 kts | 242° |
| 2026-05-06 16:10 | 41.32053 | 2.14714 | 787 ft | 128 kts | 242° |
| 2026-05-06 16:10 | 41.31690 | 2.13651 | 605 ft | 125 kts | 242° |
| 2026-05-06 16:10 | 41.31337 | 2.12610 | 420 ft | 124 kts | 243° |
| 2026-05-06 16:10 | 41.30983 | 2.11545 | 267 ft | 126 kts | 244° |
| 2026-05-06 16:11 | 41.30621 | 2.10503 | 67 ft | 123 kts | 241° |
| 2026-05-06 16:11 | 41.30278 | 2.09518 | 4 ft | 100 kts | 247° |
| 2026-05-06 16:11 | 41.30062 | 2.08883 | 4 ft | 51 kts | 245° |
| 2026-05-06 16:11 | 41.29938 | 2.08640 | 6 ft | 30 kts | 223° |
| 2026-05-06 16:12 | 41.29829 | 2.08530 | 4 ft | 13 kts | 215° |
| 2026-05-06 16:12 | 41.29759 | 2.08464 | 3 ft | 14 kts | 215° |
| 2026-05-06 16:12 | 41.29703 | 2.08380 | 3 ft | 14 kts | 245° |
| 2026-05-06 16:12 | 41.29657 | 2.08249 | 3 ft | 15 kts | 246° |
| 2026-05-06 16:13 | 41.29613 | 2.08118 | 3 ft | 15 kts | 245° |
| 2026-05-06 16:13 | 41.29567 | 2.07985 | 3 ft | 9 kts | 245° |
| 2026-05-06 16:13 | 41.29504 | 2.07951 | 3 ft | 13 kts | 159° |
| 2026-05-06 16:13 | 41.29408 | 2.08009 | 3 ft | 16 kts | 155° |
| 2026-05-06 16:14 | 41.29321 | 2.08062 | 3 ft | 7 kts | 156° |
| 2026-05-06 16:14 | 41.29269 | 2.08034 | 3 ft | 11 kts | 245° |
| 2026-05-06 16:14 | 41.29234 | 2.07983 | 3 ft | 8 kts | 179° |
| 2026-05-06 16:14 | 41.29189 | 2.08007 | 3 ft | 3 kts | 153° |
| 2026-05-06 16:15 | 41.29179 | 2.08014 | 3 ft | 1 kts | 153° |
| 2026-05-06 16:15 | 41.29176 | 2.08016 | 3 ft | 0 kts | 153° |